createdAt,value
2023-01-12T00:01:43.070Z,62.61
2023-01-12T00:04:12.257Z,62.62
2023-01-12T00:06:39.253Z,62.79
2023-01-12T00:09:06.888Z,62.63
2023-01-12T00:11:35.008Z,62.70
2023-01-12T00:14:02.094Z,62.78
2023-01-12T00:16:35.035Z,62.54
2023-01-12T00:19:23.191Z,62.57
2023-01-12T00:22:01.735Z,62.44
2023-01-12T00:24:33.939Z,62.69
2023-01-12T00:27:01.228Z,62.60
2023-01-12T00:29:28.386Z,62.49
2023-01-12T00:31:56.224Z,62.71
2023-01-12T00:34:23.244Z,62.88
2023-01-12T00:36:50.111Z,62.96
2023-01-12T00:39:16.979Z,62.97
2023-01-12T00:42:03.520Z,62.89
2023-01-12T00:44:48.874Z,62.89
2023-01-12T00:47:15.801Z,62.88
2023-01-12T00:49:43.044Z,62.75
2023-01-12T00:52:18.137Z,62.69
2023-01-12T00:54:52.434Z,62.71
2023-01-12T00:57:19.190Z,62.86
2023-01-12T00:59:47.150Z,62.93
2023-01-12T08:06:11.434Z,74.14
2023-01-12T08:08:38.589Z,73.45
2023-01-12T08:11:07.861Z,72.75
2023-01-12T08:13:35.037Z,72.54
2023-01-12T08:16:06.425Z,72.00
2023-01-12T08:18:56.328Z,71.56
2023-01-12T08:21:24.850Z,71.16
2023-01-12T08:23:54.352Z,70.86
2023-01-12T08:26:24.500Z,70.61
2023-01-12T08:28:57.866Z,70.12
2023-01-12T08:31:25.108Z,69.75
2023-01-12T08:33:53.228Z,69.54
2023-01-12T08:36:20.240Z,69.21
2023-01-12T08:38:47.588Z,69.15
2023-01-12T08:41:33.585Z,68.85
2023-01-12T08:44:02.076Z,68.38
2023-01-12T08:46:49.102Z,68.10
2023-01-12T08:49:18.076Z,67.94
2023-01-12T08:51:45.361Z,67.72
2023-01-12T08:54:14.250Z,67.60
2023-01-12T08:56:41.460Z,67.44
2023-01-12T08:59:08.606Z,67.29
2023-01-12T09:01:36.608Z,67.14
2023-01-12T09:04:04.955Z,66.90
2023-01-12T09:06:36.310Z,66.75
2023-01-12T09:09:04.276Z,66.55
2023-01-12T09:11:32.477Z,66.46
2023-01-12T09:13:59.494Z,66.49
2023-01-12T09:16:28.360Z,66.36
2023-01-12T09:18:56.262Z,66.08
2023-01-12T09:21:24.932Z,66.00
2023-01-12T09:23:52.300Z,65.81
2023-01-12T09:26:31.112Z,65.83
2023-01-12T09:28:59.593Z,65.69
2023-01-12T09:31:27.738Z,65.57
2023-01-12T09:33:55.537Z,65.65
2023-01-12T09:36:30.368Z,65.65
2023-01-12T09:38:57.818Z,65.49
2023-01-12T09:41:45.853Z,65.29
2023-01-12T09:44:51.011Z,65.27
2023-01-12T09:47:20.397Z,65.33
2023-01-12T09:50:10.644Z,65.21
2023-01-12T09:52:47.887Z,65.18
2023-01-12T09:55:19.617Z,65.08
2023-01-12T09:58:05.821Z,64.78
2023-01-12T10:00:34.817Z,64.84
2023-01-12T10:03:06.997Z,64.89
2023-01-12T10:05:53.899Z,64.72
2023-01-12T10:08:33.352Z,64.73
2023-01-12T10:11:28.147Z,64.76
2023-01-12T10:14:01.218Z,64.76
2023-01-12T10:17:00.835Z,64.71
2023-01-12T10:19:38.843Z,64.54
2023-01-12T10:22:39.163Z,64.40
2023-01-12T10:25:31.134Z,64.24
2023-01-12T10:27:59.114Z,64.20
2023-01-12T10:30:36.580Z,64.31
2023-01-12T16:42:47.414Z,79.38
2023-01-12T16:45:14.766Z,74.28
2023-01-12T16:47:41.920Z,72.95
2023-01-12T16:50:09.385Z,72.43
2023-01-12T16:52:36.726Z,72.00
2023-01-12T16:55:07.394Z,71.51
2023-01-12T16:57:34.570Z,71.54
2023-01-12T17:00:01.829Z,71.07
2023-01-12T17:02:31.771Z,70.67
2023-01-12T17:04:59.335Z,70.03
2023-01-12T17:07:26.951Z,69.98
2023-01-12T17:09:54.055Z,69.77
2023-01-12T17:12:21.602Z,69.41
2023-01-12T17:14:48.956Z,69.19
2023-01-12T17:17:16.305Z,68.86
2023-01-12T17:19:44.408Z,68.65
2023-01-12T17:22:11.752Z,68.41
2023-01-12T17:24:39.910Z,68.07
2023-01-12T17:27:07.879Z,67.95
2023-01-12T17:29:35.053Z,67.77
2023-01-12T17:32:03.529Z,67.55
2023-01-12T17:34:31.906Z,67.31
2023-01-12T17:37:02.515Z,67.36
2023-01-12T17:39:30.278Z,67.26
2023-01-12T17:42:16.273Z,67.18
2023-01-12T17:44:43.522Z,67.10
2023-01-12T17:47:11.284Z,66.90
2023-01-12T17:49:38.331Z,66.80
2023-01-12T17:52:05.500Z,66.85
2023-01-12T17:54:33.620Z,66.87
2023-01-12T17:57:00.921Z,67.48
2023-01-12T17:59:28.277Z,67.59
2023-01-12T18:01:56.004Z,67.43
2023-01-12T18:04:23.067Z,67.56
2023-01-12T18:06:50.116Z,67.36
2023-01-12T18:09:17.367Z,66.93
2023-01-12T18:11:44.520Z,66.63
2023-01-12T18:14:11.872Z,66.52
2023-01-12T18:16:39.427Z,66.44
2023-01-12T18:19:08.142Z,66.55
2023-01-12T18:21:35.672Z,66.65
2023-01-12T18:24:02.843Z,67.12
2023-01-12T18:26:30.885Z,67.42
2023-01-12T18:28:58.352Z,67.27
2023-01-12T18:31:28.169Z,67.43
2023-01-12T18:34:03.736Z,66.65
2023-01-12T18:36:38.582Z,66.38
2023-01-12T18:39:06.970Z,66.32
2023-01-12T18:41:56.717Z,66.09
2023-01-12T18:44:24.263Z,65.98
2023-01-12T18:47:09.736Z,65.99
2023-01-12T18:49:39.247Z,66.05
2023-01-12T18:52:25.337Z,65.78
2023-01-12T18:54:53.484Z,65.68
2023-01-12T18:57:23.211Z,66.37
2023-01-12T18:59:51.795Z,66.40
2023-01-12T19:02:19.094Z,65.75
2023-01-12T19:04:49.270Z,65.49
2023-01-12T19:07:43.555Z,65.24
2023-01-12T19:10:10.701Z,65.09
2023-01-12T19:12:37.852Z,64.89
2023-01-12T19:15:24.560Z,64.81
2023-01-12T19:17:52.115Z,64.66
2023-01-12T19:20:20.613Z,64.58
2023-01-12T19:23:06.494Z,64.45
2023-01-12T19:26:12.222Z,64.29
2023-01-12T19:28:40.168Z,64.34
2023-01-12T19:31:10.147Z,64.28
2023-01-12T19:33:37.992Z,64.05
2023-01-12T19:36:07.289Z,63.90
2023-01-12T19:38:35.697Z,63.81
2023-01-12T19:41:10.402Z,63.62
2023-01-12T19:43:40.638Z,63.60
2023-01-12T19:46:07.893Z,64.02
2023-01-12T19:48:35.129Z,64.49
2023-01-12T19:51:10.316Z,64.47
2023-01-12T19:53:39.862Z,64.42
2023-01-12T19:56:10.697Z,64.54
2023-01-12T19:58:38.267Z,64.59
2023-01-12T20:01:05.274Z,64.46
2023-01-12T20:03:32.880Z,64.50
2023-01-12T20:06:04.720Z,64.24
2023-01-12T20:08:32.485Z,63.54
2023-01-12T20:11:01.477Z,63.37
2023-01-12T20:13:30.064Z,63.86
2023-01-12T20:15:58.401Z,63.84
2023-01-12T20:18:25.908Z,63.35
2023-01-12T20:20:58.164Z,63.08
2023-01-12T20:23:25.211Z,63.05
2023-01-12T20:25:52.363Z,63.00
2023-01-12T20:28:20.262Z,62.94
2023-01-12T20:30:47.366Z,62.85
2023-01-12T20:33:14.319Z,62.87
2023-01-12T20:35:45.871Z,62.73
2023-01-12T20:38:15.275Z,62.67
2023-01-12T20:40:45.718Z,62.84
2023-01-12T20:43:12.983Z,62.82
2023-01-12T20:45:41.237Z,62.94
2023-01-12T20:48:08.688Z,62.98
2023-01-12T20:50:35.731Z,62.62
2023-01-12T20:53:03.805Z,62.57
2023-01-12T20:55:31.257Z,62.66
2023-01-12T20:57:58.306Z,62.50
2023-01-12T21:00:26.802Z,62.54
2023-01-12T21:02:54.041Z,62.60
2023-01-12T21:05:21.294Z,62.58
2023-01-12T21:07:51.981Z,62.68
2023-01-12T21:10:21.333Z,62.66
2023-01-12T21:12:48.572Z,62.61
2023-01-12T21:15:17.667Z,62.48
2023-01-12T21:17:47.069Z,62.55
2023-01-12T21:20:14.535Z,62.56
2023-01-12T21:22:41.776Z,62.49
2023-01-12T21:25:10.258Z,62.52
2023-01-12T21:27:37.509Z,62.56
2023-01-12T21:30:05.266Z,62.51
2023-01-12T21:32:32.543Z,62.48
2023-01-12T21:34:59.783Z,62.59
2023-01-12T21:37:27.025Z,62.61
2023-01-12T21:39:54.184Z,62.47
2023-01-12T21:42:43.346Z,62.33
2023-01-12T21:45:11.218Z,62.20
2023-01-12T21:47:38.152Z,62.28
2023-01-12T21:50:06.735Z,62.37
2023-01-12T21:52:34.190Z,62.37
2023-01-12T21:55:01.249Z,62.44
2023-01-12T21:57:28.607Z,62.62
2023-01-12T21:59:55.778Z,62.76
2023-01-12T22:02:23.303Z,62.63
2023-01-12T22:04:50.345Z,62.69
2023-01-12T22:07:17.806Z,62.91
2023-01-12T22:09:45.273Z,63.10
2023-01-12T22:12:12.207Z,63.11
2023-01-12T22:14:43.257Z,62.95
2023-01-12T22:17:10.398Z,63.01
2023-01-12T22:19:39.413Z,63.14
2023-01-12T22:22:07.049Z,63.21
2023-01-12T22:24:34.204Z,63.26
2023-01-12T22:27:02.984Z,63.35
2023-01-12T22:29:30.849Z,63.55
2023-01-12T22:31:58.129Z,63.89
2023-01-12T22:34:25.867Z,64.08
2023-01-12T22:36:52.708Z,64.22
2023-01-12T22:39:19.755Z,64.04
2023-01-12T22:41:50.077Z,63.95
2023-01-12T22:44:17.435Z,63.98
2023-01-12T22:46:44.785Z,63.88
2023-01-12T22:49:11.842Z,63.93
2023-01-12T22:51:38.986Z,64.12
2023-01-12T22:54:06.233Z,64.04
2023-01-12T22:56:33.279Z,63.86
2023-01-12T22:59:00.770Z,63.98
2023-01-12T23:01:28.016Z,63.98
2023-01-12T23:03:55.680Z,63.96
2023-01-12T23:06:23.205Z,63.88
2023-01-12T23:08:50.567Z,63.86
2023-01-12T23:11:19.740Z,64.16
2023-01-12T23:13:46.700Z,64.24
2023-01-12T23:16:15.150Z,64.32
2023-01-12T23:18:43.562Z,64.27
2023-01-12T23:21:25.968Z,64.28
2023-01-12T23:23:57.415Z,64.35
2023-01-12T23:26:25.405Z,64.25
2023-01-12T23:28:55.420Z,64.40
2023-01-12T23:31:24.043Z,64.24
2023-01-12T23:33:51.769Z,64.40
2023-01-12T23:36:20.759Z,64.46
2023-01-12T23:38:51.276Z,64.66
2023-01-12T23:41:20.166Z,64.63
2023-01-12T23:43:48.024Z,64.62
2023-01-12T23:46:21.578Z,64.79
2023-01-12T23:48:53.796Z,64.98
2023-01-12T23:51:21.249Z,64.90
2023-01-12T23:53:50.860Z,64.99
2023-01-12T23:56:18.720Z,65.06
2023-01-12T23:58:47.305Z,65.21
